Terminal Aerodrome Forecast
Issued by NWS Tampa Bay Area, FL

Home | Current Version | Previous Version | Text Only | Print | Product List | Glossary Off
Versions: 1 2 3 4 5 6 7 8 9 10 11 12 13 14 15 16 17 18 19 20 21 22 23 24 25 26

000
FTUS42 KTBW 251129
TAFTPA
TAF
KTPA 251129Z 2512/2612 28006KT P6SM BKN040
     FM251500 27008KT P6SM SCT040
     FM252100 27011G16KT P6SM FEW050 FEW250
     FM260100 27007KT P6SM FEW050 FEW250
     FM260600 VRB03KT P6SM FEW250=

USA.gov is the U.S. government's official web portal to all federal, state and local government web resources and services.